Latest Weather Observations for Kuitpo

IDS60901

Issued at 4:11 pm CST Sunday 11 April 2021 (issued every 10 minutes, with the page automatically refreshed every 10 minutes)

About weather observations | Map of Adelaide area stations | Latest observations for Adelaide area | Other Formats
Station Details ID: 023887 Name: KUITPO FOREST RESERVE Lat: -35.17 Lon: 138.68 Height: 365.0 m
Data from the previous 72 hours. | See also: Recent months at Kuitpo
Date/Time
CST
Temp
°C
App
Temp
°C
Dew
Point
°C
Rel
Hum
%
Delta-T
°C
Wind Press
QNH
hPa
Press
MSL
hPa
Rain since
9am
mm
Dir  Spd
km/h
Gust
km/h
Spd
kts
Gust
kts
11/04:00pm 12.9 9.4 5.6 61 3.5 S 13 22 7 12 1022.6 1022.0 0.0
11/03:30pm 13.1 9.0 4.5 56 4.0 SSE 15 28 8 15 1022.7 1022.1 0.0
11/03:00pm 13.8 10.2 5.2 56 4.1 S 13 20 7 11 1022.8 1022.2 0.0
11/02:30pm 13.7 9.3 4.8 55 4.2 S 17 28 9 15 1022.8 1022.2 0.0
11/02:00pm 13.3 10.0 6.2 62 3.4 SSE 13 28 7 15 1022.5 1021.9 0.0
11/01:30pm 12.9 9.2 6.3 64 3.2 S 15 26 8 14 1022.5 1021.9 0.0
11/01:00pm 14.1 10.4 4.4 52 4.6 S 13 26 7 14 1022.5 1021.9 0.0
11/12:30pm 14.0 9.8 3.8 50 4.7 SSE 15 28 8 15 1022.8 1022.2 0.0
11/12:00pm 13.7 8.8 4.0 52 4.5 SSE 19 33 10 18 1022.9 1022.3 0.0
11/11:30am 13.3 9.4 5.5 59 3.7 S 15 26 8 14 1023.1 1022.5 0.0
11/11:00am 13.5 9.2 5.2 57 4.0 S 17 28 9 15 1023.0 1022.4 0.0
11/10:30am 12.7 8.4 5.1 60 3.6 S 17 32 9 17 1023.1 1022.5 0.0
11/10:00am 13.0 8.0 3.7 53 4.3 S 19 30 10 16 1022.9 1022.3 0.0
11/09:30am 13.1 8.2 4.3 55 4.1 S 19 30 10 16 1022.9 1022.3 0.0
11/09:00am 11.7 7.7 6.6 71 2.5 SSW 17 28 9 15 1022.7 1022.1 0.4
11/08:30am 11.0 6.1 6.7 75 2.1 S 22 39 12 21 1022.4 1021.8 0.4
11/08:00am 11.0 8.0 6.2 72 2.3 SSW 11 19 6 10 1021.8 1021.2 0.4
11/07:30am 11.2 6.7 4.2 62 3.2 SSW 17 28 9 15 1021.4 1020.8 0.4
11/07:00am 11.1 6.6 4.3 63 3.1 SSW 17 24 9 13 1021.1 1020.5 0.4
11/06:30am 11.1 7.1 5.0 66 2.8 SSW 15 24 8 13 1020.7 1020.1 0.4
11/06:00am 10.9 7.8 5.7 70 2.4 SSW 11 17 6 9 1020.6 1020.0 0.4
11/05:30am 10.9 7.1 5.9 71 2.4 SSW 15 24 8 13 1020.2 1019.6 0.4
11/05:00am 10.6 7.0 6.7 77 1.9 SW 15 20 8 11 1019.9 1019.2 0.4
11/04:30am 10.3 7.5 6.8 79 1.7 SSW 11 17 6 9 1019.6 1018.9 0.4
11/04:00am 10.3 6.6 6.5 77 1.8 SSW 15 24 8 13 1019.3 1018.6 0.4
11/03:30am 9.9 6.7 6.8 81 1.5 SSW 13 22 7 12 1019.1 1018.4 0.4
11/03:00am 9.8 5.5 7.2 84 1.3 SW 19 32 10 17 1019.3 1018.6 0.4
11/02:30am 9.9 6.0 7.2 83 1.3 SSW 17 28 9 15 1019.2 1018.5 0.2
11/02:00am 10.5 7.2 6.5 76 1.9 SW 13 20 7 11 1019.1 1018.4 0.2
11/01:30am 11.1 6.9 5.8 70 2.5 SW 17 26 9 14 1018.9 1018.3 0.2
11/01:00am 10.9 6.5 5.0 67 2.7 SW 17 26 9 14 1018.8 1018.2 0.2
11/12:30am 11.2 6.6 3.5 59 3.5 SW 17 32 9 17 1018.7 1018.1 0.2
11/12:00am 10.9 5.9 3.7 61 3.2 SW 19 30 10 16 1018.8 1018.2 0.2
 
Date/Time
CST
Temp
°C
App
Temp
°C
Dew
Point
°C
Rel
Hum
%
Delta-T
°C
Wind Press
QNH
hPa
Press
MSL
hPa
Rain since
9am
mm
Dir  Spd
km/h
Gust
km/h
Spd
kts
Gust
kts
10/11:30pm 11.1 6.9 5.6 69 2.6 SW 17 28 9 15 1019.1 1018.4 0.2
10/11:00pm 11.5 7.5 6.6 72 2.4 SSW 17 30 9 16 1019.1 1018.4 0.2
10/10:30pm 11.3 7.0 7.8 79 1.7 SW 20 32 11 17 1018.9 1018.3 0.2
10/10:00pm 11.2 7.4 7.5 78 1.8 SW 17 30 9 16 1018.7 1018.1 0.2
10/09:30pm 11.4 6.5 7.1 75 2.1 SW 22 35 12 19 1018.6 1018.0 0.2
10/09:00pm 10.9 7.1 7.4 79 1.7 WSW 17 24 9 13 1018.2 1017.6 0.2
10/08:30pm 10.8 6.6 7.5 80 1.6 SW 19 30 10 16 1018.1 1017.5 0.2
10/08:00pm 11.7 7.7 6.6 71 2.5 SW 17 26 9 14 1017.9 1017.3 0.2
10/07:30pm 11.1 6.8 7.0 76 2.0 SW 19 30 10 16 1017.7 1017.1 0.2
10/07:00pm 11.5 8.0 7.2 75 2.1 SW 15 24 8 13 1017.2 1016.5 0.2
10/06:30pm 11.7 8.5 6.8 72 2.4 SW 13 19 7 10 1016.8 1016.1 0.2
10/06:00pm 12.2 8.2 6.5 68 2.8 SW 17 26 9 14 1016.5 1015.8 0.2
10/05:30pm 13.0 9.0 6.6 65 3.1 SSW 17 26 9 14 1016.3 1015.6 0.2
10/05:00pm 13.5 9.7 5.7 59 3.8 SW 15 24 8 13 1016.0 1015.4 0.2
10/04:30pm 14.2 10.1 6.1 58 3.9 SW 17 32 9 17 1015.9 1015.3 0.2
10/04:00pm 13.2 9.0 7.6 69 2.8 SW 19 33 10 18 1015.9 1015.3 0.2
10/03:30pm 13.8 8.6 7.1 64 3.3 SSW 24 37 13 20 1015.6 1015.0 0.2
10/03:00pm 15.1 10.3 5.6 53 4.6 SW 20 32 11 17 1015.2 1014.6 0.2
10/02:30pm 15.2 9.8 6.5 56 4.3 SW 24 39 13 21 1015.1 1014.4 0.2
10/02:00pm 14.9 10.1 7.2 60 3.9 SW 22 35 12 19 1015.0 1014.3 0.2
10/01:30pm 14.2 9.5 7.9 66 3.2 SSW 22 37 12 20 1015.0 1014.3 0.2
10/01:00pm 13.7 9.9 9.7 77 2.1 SSW 20 37 11 20 1015.1 1014.4 0.2
10/12:30pm 15.3 10.8 8.5 64 3.5 SSW 22 35 12 19 1015.1 1014.4 0.2
10/12:00pm 15.4 12.5 9.5 68 3.1 SSW 15 26 8 14 1015.1 1014.4 0.2
10/11:30am 14.8 12.3 11.2 79 2.0 SW 15 22 8 12 1014.9 1014.2 0.2
10/11:00am 12.8 10.5 11.9 94 0.5 SW 15 24 8 13 1015.0 1014.3 0.2
10/10:30am 12.7 9.0 10.2 85 1.3 SW 20 37 11 20 1015.0 1014.3 0.2
10/10:00am 13.8 9.9 9.6 76 2.2 WSW 20 32 11 17 1015.0 1014.3 0.0
10/09:30am 13.7 10.8 9.7 77 2.1 WSW 15 28 8 15 1015.0 1014.3 0.0
10/09:00am 13.1 10.3 9.9 81 1.7 WSW 15 26 8 14 1014.7 1014.0 0.8
10/08:30am 12.8 8.7 10.2 84 1.4 SW 22 41 12 22 1014.4 1013.7 0.8
10/08:00am 12.1 9.0 10.3 89 0.9 WSW 17 24 9 13 1014.1 1013.4 0.8
10/07:30am 11.5 8.3 9.9 90 0.8 SW 17 26 9 14 1013.7 1013.0 0.8
10/07:00am 10.9 7.1 9.8 93 0.6 SW 20 33 11 18 1013.4 1012.7 0.8
10/06:30am 11.2 8.1 10.4 95 0.4 WSW 17 26 9 14 1013.0 1012.4 0.2
10/06:00am 11.0 8.4 10.7 98 0.2 SW 15 26 8 14 1012.8 1012.2 0.2
10/05:30am 11.2 8.2 10.6 96 0.3 SW 17 26 9 14 1012.5 1011.8 0.2
10/05:00am 11.1 8.4 10.3 95 0.4 SW 15 24 8 13 1012.3 1011.6 0.2
10/04:30am 11.1 8.1 10.5 96 0.3 WSW 17 28 9 15 1012.4 1011.7 0.2
10/04:00am 11.1 8.0 10.3 95 0.4 SW 17 24 9 13 1012.3 1011.6 0.2
10/03:30am 11.3 7.6 10.0 92 0.7 SW 20 37 11 20 1012.3 1011.6 0.0
10/03:00am 11.5 8.2 9.6 88 1.0 SW 17 26 9 14 1012.4 1011.7 0.0
10/02:30am 11.5 8.1 9.2 86 1.2 WSW 17 26 9 14 1012.4 1011.7 0.0
10/02:00am 11.9 8.1 9.1 83 1.4 SW 19 28 10 15 1012.5 1011.8 0.0
10/01:30am 11.6 7.9 9.5 87 1.1 SW 19 35 10 19 1012.6 1011.9 0.0
10/01:00am 12.4 9.5 8.3 76 2.1 WSW 13 19 7 10 1012.5 1011.8 0.0
10/12:30am 12.6 9.3 7.9 73 2.4 SW 15 22 8 12 1012.7 1012.0 0.0
10/12:00am 12.5 8.6 7.0 69 2.7 SW 17 30 9 16 1012.8 1012.2 0.0
 
Date/Time
CST
Temp
°C
App
Temp
°C
Dew
Point
°C
Rel
Hum
%
Delta-T
°C
Wind Press
QNH
hPa
Press
MSL
hPa
Rain since
9am
mm
Dir  Spd
km/h
Gust
km/h
Spd
kts
Gust
kts
09/11:30pm 12.2 8.7 7.3 72 2.4 SW 15 33 8 18 1013.1 1012.5 0.0
09/11:00pm 12.3 9.3 7.8 74 2.2 SW 13 20 7 11 1013.2 1012.6 0.0
09/10:30pm 12.1 9.0 7.2 72 2.4 SW 13 17 7 9 1013.4 1012.7 0.0
09/10:00pm 11.9 8.9 7.6 75 2.1 SW 13 17 7 9 1013.6 1012.9 0.0
09/09:30pm 11.5 8.7 7.0 74 2.2 SW 11 17 6 9 1013.6 1012.9 0.0
09/09:00pm 12.0 9.2 6.9 71 2.5 WSW 11 17 6 9 1013.5 1012.8 0.0
09/08:30pm 12.4 10.0 6.9 69 2.7 SW 9 13 5 7 1013.4 1012.7 0.0
09/08:00pm 12.3 9.9 6.8 69 2.7 WSW 9 13 5 7 1013.1 1012.5 0.0
09/07:30pm 12.4 10.0 6.9 69 2.7 SSW 9 13 5 7 1012.9 1012.3 0.0
09/07:00pm 12.7 10.3 7.2 69 2.7 SSW 9 15 5 8 1012.7 1012.0 0.0
09/06:30pm 13.2 10.8 6.8 65 3.1 SSW 9 15 5 8 1012.3 1011.6 0.0
09/06:00pm 13.7 10.4 6.6 62 3.5 SSW 13 19 7 10 1012.1 1011.4 0.0
09/05:30pm 14.1 10.6 7.2 63 3.4 SSW 15 24 8 13 1011.8 1011.1 0.0
09/05:00pm 14.7 11.8 8.0 64 3.4 S 13 22 7 12 1011.7 1011.0 0.0
09/04:30pm 15.2 12.4 7.0 58 4.1 SSW 11 20 6 11 1011.7 1011.0 0.0
09/04:00pm 15.6 12.5 7.4 58 4.1 S 13 22 7 12 1011.5 1010.8 0.0
09/03:30pm 16.9 13.9 7.5 54 4.8 SSW 13 20 7 11 1011.6 1010.9 0.0
09/03:00pm 17.2 13.8 7.8 54 4.8 S 15 24 8 13 1011.6 1010.9 0.0
09/02:30pm 16.2 12.3 7.2 55 4.6 SSW 17 22 9 12 1011.7 1011.0 0.0
09/02:00pm 17.0 13.8 6.8 51 5.1 S 13 24 7 13 1012.0 1011.3 0.0
09/01:30pm 16.7 13.7 5.9 49 5.3 SSE 11 20 6 11 1012.4 1011.7 0.0
09/01:00pm 17.5 14.3 7.0 50 5.3 SSW 13 20 7 11 1012.6 1011.9 0.0
09/12:30pm 16.6 13.4 6.7 52 5.0 SSE 13 20 7 11 1012.7 1012.0 0.0
09/12:00pm 16.6 13.9 5.6 48 5.4 SSE 9 24 5 13 1012.9 1012.3 0.0
09/11:30am 15.7 12.4 6.4 54 4.6 SSE 13 26 7 14 1013.0 1012.4 0.0
09/11:00am 15.5 12.8 7.3 58 4.1 SSE 11 20 6 11 1013.1 1012.5 0.0
09/10:30am 15.5 12.1 7.8 60 3.9 S 15 24 8 13 1013.7 1013.0 0.0
09/10:00am 15.8 13.1 9.0 64 3.6 SE 13 28 7 15 1013.7 1013.0 0.0
09/09:30am 14.4 10.5 7.0 61 3.7 SE 17 28 9 15 1013.2 1012.6 0.0
09/09:00am 14.0 11.0 7.8 66 3.1 S 13 26 7 14 1013.7 1013.0 1.2
09/08:30am 13.0 10.0 7.9 71 2.6 SSE 13 20 7 11 1013.1 1012.5 1.2
09/08:00am 12.0 9.2 8.7 80 1.7 S 13 22 7 12 1012.8 1012.2 1.2
09/07:30am 11.2 8.2 9.1 87 1.1 S 15 22 8 12 1012.4 1011.7 1.2
09/07:00am 10.9 8.4 9.8 93 0.6 S 13 17 7 9 1012.4 1011.7 1.2
09/06:30am 11.3 9.0 10.4 94 0.5 SSE 13 19 7 10 1011.5 1010.8 1.2
09/06:00am 11.6 9.4 10.7 94 0.5 SSE 13 19 7 10 1011.4 1010.7 1.2
09/05:30am 11.8 9.3 11.2 96 0.3 SSE 15 24 8 13 1010.9 1010.2 1.2
09/05:00am 11.9 9.5 11.4 97 0.3 SSE 15 20 8 11 1010.7 1010.0 1.0
09/04:30am 12.1 9.4 11.6 97 0.3 SSE 17 26 9 14 1010.2 1009.5 1.0
09/04:00am 12.5 9.9 12.0 97 0.3 SSE 17 26 9 14 1010.7 1010.0 1.0
09/03:30am 12.9 10.1 12.6 98 0.2 S 19 32 10 17 1010.7 1010.0 1.0
09/03:00am 13.1 10.7 12.8 98 0.2 SSE 17 35 9 19 1010.6 1009.9 1.0
09/02:30am 13.4 10.8 13.2 99 0.1 S 19 33 10 18 1010.2 1009.5 1.0
09/02:00am 13.7 12.0 13.5 99 0.1 SSE 15 24 8 13 1010.0 1009.3 1.0
09/01:30am 14.1 12.1 13.9 99 0.1 S 17 26 9 14 1010.7 1010.0 1.0
09/01:00am 14.8 13.4 14.5 98 0.2 S 15 24 8 13 1010.6 1009.9 1.0
09/12:30am 14.8 12.9 14.2 96 0.3 SSW 17 28 9 15 1010.5 1009.8 1.0
09/12:00am 15.4 14.6 15.1 98 0.2 S 13 20 7 11 1009.8 1009.1 1.0
 
Date/Time
CST
Temp
°C
App
Temp
°C
Dew
Point
°C
Rel
Hum
%
Delta-T
°C
Wind Press
QNH
hPa
Press
MSL
hPa
Rain since
9am
mm
Dir  Spd
km/h
Gust
km/h
Spd
kts
Gust
kts
08/11:30pm 15.6 14.8 15.1 97 0.3 S 13 20 7 11 1009.8 1009.1 0.8
08/11:00pm 15.9 15.2 15.3 96 0.4 SSE 13 19 7 10 1009.7 1009.0 0.4
08/10:30pm 16.8 15.3 14.3 85 1.5 S 15 26 8 14 1010.6 1009.9 0.0
08/10:00pm 17.9 16.9 12.4 70 3.1 SSE 9 17 5 9 1009.8 1009.1 0.0
08/09:30pm 18.4 16.4 11.5 64 3.8 SE 13 19 7 10 1008.9 1008.2 0.0
08/09:00pm 18.4 16.4 11.5 64 3.8 SSE 13 19 7 10 1009.1 1008.4 0.0
08/08:30pm 18.2 16.6 11.7 66 3.6 SE 11 19 6 10 1008.8 1008.1 0.0
08/08:00pm 18.7 16.0 11.8 64 3.9 ESE 17 20 9 11 1007.9 1007.1 0.0
08/07:30pm 18.6 16.8 10.7 60 4.3 SE 11 17 6 9 1008.3 1007.6 0.0
08/07:00pm 19.1 17.2 9.0 52 5.4 SSE 9 13 5 7 1008.4 1007.7 0.0
08/06:30pm 20.0 17.7 7.4 44 6.6 SSE 9 15 5 8 1008.3 1007.6 0.0
08/06:00pm 21.3 18.3 4.0 32 8.5 SW 9 11 5 6 1008.0 1007.2 0.0
08/05:30pm 22.2 19.1 3.8 30 9.1 WSW 9 13 5 7 1007.7 1006.9 0.0
08/05:00pm 23.8 19.5 3.2 26 10.2 WSW 15 20 8 11 1007.4 1006.7 0.0
08/04:30pm 24.7 20.0 3.4 25 10.6 WSW 17 24 9 13 1007.6 1006.8 0.0

Latest Capital City Observations: Canberra | Sydney | Melbourne | Brisbane | Adelaide | Perth | Hobart | Darwin

Other formats

Comma delimited format used in spreadsheet applications
http://www.bom.gov.au/fwo/IDS60901/IDS60901.94683.axf

JavaScript Object Notation format (JSON) in row-major order
http://www.bom.gov.au/fwo/IDS60901/IDS60901.94683.json

Data quality

Most of these data are generated automatically and are frequently updated. Quality checks on data are not normally performed. It is possible for incorrect values to appear. Refer to information at About Latest Weather Observations and please check the disclaimer before using these data.